sensor_id;sensor_type;location;lat;lon;timestamp;temperature;humidity
81800;DHT22;71195;52.528;5.704;2024-01-27T00:01:15;5.70;65.80
81800;DHT22;71195;52.528;5.704;2024-01-27T00:03:44;5.70;65.80
81800;DHT22;71195;52.528;5.704;2024-01-27T00:06:14;5.70;65.80
81800;DHT22;71195;52.528;5.704;2024-01-27T00:08:43;5.70;65.80
81800;DHT22;71195;52.528;5.704;2024-01-27T00:11:12;5.70;65.90
81800;DHT22;71195;52.528;5.704;2024-01-27T00:13:41;5.60;65.90
81800;DHT22;71195;52.528;5.704;2024-01-27T00:16:13;5.70;65.80
81800;DHT22;71195;52.528;5.704;2024-01-27T00:18:42;5.60;65.90
81800;DHT22;71195;52.528;5.704;2024-01-27T00:21:11;5.60;65.80
81800;DHT22;71195;52.528;5.704;2024-01-27T00:23:41;5.60;65.90
81800;DHT22;71195;52.528;5.704;2024-01-27T00:26:10;5.60;65.90
81800;DHT22;71195;52.528;5.704;2024-01-27T00:28:39;5.60;65.90
81800;DHT22;71195;52.528;5.704;2024-01-27T00:31:08;5.50;65.90
81800;DHT22;71195;52.528;5.704;2024-01-27T00:33:40;5.60;65.90
81800;DHT22;71195;52.528;5.704;2024-01-27T00:36:09;5.50;65.90
81800;DHT22;71195;52.528;5.704;2024-01-27T00:38:38;5.50;65.90
81800;DHT22;71195;52.528;5.704;2024-01-27T00:41:07;5.50;65.80
81800;DHT22;71195;52.528;5.704;2024-01-27T00:43:38;5.50;65.90
81800;DHT22;71195;52.528;5.704;2024-01-27T00:46:08;5.50;65.80
81800;DHT22;71195;52.528;5.704;2024-01-27T00:48:39;5.50;65.80
81800;DHT22;71195;52.528;5.704;2024-01-27T00:51:08;5.50;65.90
81800;DHT22;71195;52.528;5.704;2024-01-27T00:53:37;5.50;65.90
81800;DHT22;71195;52.528;5.704;2024-01-27T00:56:07;5.50;65.90
81800;DHT22;71195;52.528;5.704;2024-01-27T00:58:36;5.50;66.00
81800;DHT22;71195;52.528;5.704;2024-01-27T01:01:05;5.50;65.90
81800;DHT22;71195;52.528;5.704;2024-01-27T01:03:34;5.40;66.00
81800;DHT22;71195;52.528;5.704;2024-01-27T01:06:06;5.40;65.90
81800;DHT22;71195;52.528;5.704;2024-01-27T01:08:35;5.40;66.00
81800;DHT22;71195;52.528;5.704;2024-01-27T01:11:04;5.40;65.90
81800;DHT22;71195;52.528;5.704;2024-01-27T01:13:33;5.30;66.00
81800;DHT22;71195;52.528;5.704;2024-01-27T01:16:03;5.30;65.90
81800;DHT22;71195;52.528;5.704;2024-01-27T01:18:34;5.30;66.00
81800;DHT22;71195;52.528;5.704;2024-01-27T01:21:06;5.30;66.10
81800;DHT22;71195;52.528;5.704;2024-01-27T01:23:35;5.30;66.10
81800;DHT22;71195;52.528;5.704;2024-01-27T01:26:04;5.30;66.10
81800;DHT22;71195;52.528;5.704;2024-01-27T01:28:33;5.30;66.10
81800;DHT22;71195;52.528;5.704;2024-01-27T01:31:05;5.20;66.10
81800;DHT22;71195;52.528;5.704;2024-01-27T01:33:35;5.20;66.10
81800;DHT22;71195;52.528;5.704;2024-01-27T01:36:07;5.10;66.10
81800;DHT22;71195;52.528;5.704;2024-01-27T01:38:36;5.20;66.20
81800;DHT22;71195;52.528;5.704;2024-01-27T01:41:05;5.10;66.20
81800;DHT22;71195;52.528;5.704;2024-01-27T01:43:34;5.10;66.20
81800;DHT22;71195;52.528;5.704;2024-01-27T01:46:04;5.10;66.20
81800;DHT22;71195;52.528;5.704;2024-01-27T01:48:33;5.10;66.10
81800;DHT22;71195;52.528;5.704;2024-01-27T01:51:05;5.10;66.10
81800;DHT22;71195;52.528;5.704;2024-01-27T01:53:35;5.10;66.10
81800;DHT22;71195;52.528;5.704;2024-01-27T01:56:06;5.10;66.10
81800;DHT22;71195;52.528;5.704;2024-01-27T01:58:35;5.10;66.10
81800;DHT22;71195;52.528;5.704;2024-01-27T02:01:04;5.10;66.20
81800;DHT22;71195;52.528;5.704;2024-01-27T02:03:33;5.00;66.20
81800;DHT22;71195;52.528;5.704;2024-01-27T02:06:03;5.00;66.20
81800;DHT22;71195;52.528;5.704;2024-01-27T02:08:34;5.00;66.20
81800;DHT22;71195;52.528;5.704;2024-01-27T02:11:04;5.00;66.30
81800;DHT22;71195;52.528;5.704;2024-01-27T02:13:33;5.00;66.20
81800;DHT22;71195;52.528;5.704;2024-01-27T02:16:02;5.00;66.20
81800;DHT22;71195;52.528;5.704;2024-01-27T02:18:31;5.00;66.30
81800;DHT22;71195;52.528;5.704;2024-01-27T02:21:01;5.00;66.30
81800;DHT22;71195;52.528;5.704;2024-01-27T02:23:30;5.00;66.30
81800;DHT22;71195;52.528;5.704;2024-01-27T02:26:01;5.00;66.20
81800;DHT22;71195;52.528;5.704;2024-01-27T02:28:30;5.00;66.30
81800;DHT22;71195;52.528;5.704;2024-01-27T02:31:01;5.00;66.30
81800;DHT22;71195;52.528;5.704;2024-01-27T02:33:30;5.00;66.30
81800;DHT22;71195;52.528;5.704;2024-01-27T02:35:59;4.90;66.40
81800;DHT22;71195;52.528;5.704;2024-01-27T02:38:28;4.90;66.30
81800;DHT22;71195;52.528;5.704;2024-01-27T02:40:57;4.90;66.40
81800;DHT22;71195;52.528;5.704;2024-01-27T02:43:29;4.90;66.40
81800;DHT22;71195;52.528;5.704;2024-01-27T02:45:58;4.90;66.40
81800;DHT22;71195;52.528;5.704;2024-01-27T02:48:27;4.90;66.40
81800;DHT22;71195;52.528;5.704;2024-01-27T02:50:57;4.90;66.50
81800;DHT22;71195;52.528;5.704;2024-01-27T02:53:26;4.80;66.50
81800;DHT22;71195;52.528;5.704;2024-01-27T02:55:55;4.80;66.50
81800;DHT22;71195;52.528;5.704;2024-01-27T02:58:24;4.80;66.50
81800;DHT22;71195;52.528;5.704;2024-01-27T03:00:56;4.80;66.50
81800;DHT22;71195;52.528;5.704;2024-01-27T03:03:25;4.80;66.50
81800;DHT22;71195;52.528;5.704;2024-01-27T03:05:55;4.70;66.50
81800;DHT22;71195;52.528;5.704;2024-01-27T03:08:24;4.70;66.60
81800;DHT22;71195;52.528;5.704;2024-01-27T03:10:53;4.70;66.70
81800;DHT22;71195;52.528;5.704;2024-01-27T03:13:22;4.70;66.60
81800;DHT22;71195;52.528;5.704;2024-01-27T03:15:51;4.70;66.60
81800;DHT22;71195;52.528;5.704;2024-01-27T03:18:24;4.70;66.50
81800;DHT22;71195;52.528;5.704;2024-01-27T03:20:54;4.70;66.60
81800;DHT22;71195;52.528;5.704;2024-01-27T03:23:23;4.70;66.60
81800;DHT22;71195;52.528;5.704;2024-01-27T03:25:52;4.70;66.70
81800;DHT22;71195;52.528;5.704;2024-01-27T03:28:21;4.70;66.70
81800;DHT22;71195;52.528;5.704;2024-01-27T03:30:50;4.60;66.60
81800;DHT22;71195;52.528;5.704;2024-01-27T03:33:19;4.60;66.60
81800;DHT22;71195;52.528;5.704;2024-01-27T03:35:51;4.60;66.60
81800;DHT22;71195;52.528;5.704;2024-01-27T03:38:20;4.60;66.60
81800;DHT22;71195;52.528;5.704;2024-01-27T03:40:49;4.50;66.60
81800;DHT22;71195;52.528;5.704;2024-01-27T03:43:19;4.50;66.60
81800;DHT22;71195;52.528;5.704;2024-01-27T03:45:48;4.50;66.50
81800;DHT22;71195;52.528;5.704;2024-01-27T03:48:17;4.50;66.60
81800;DHT22;71195;52.528;5.704;2024-01-27T03:50:46;4.50;66.70
81800;DHT22;71195;52.528;5.704;2024-01-27T03:53:18;4.50;66.70
81800;DHT22;71195;52.528;5.704;2024-01-27T03:55:47;4.40;66.80
81800;DHT22;71195;52.528;5.704;2024-01-27T03:58:16;4.40;66.80
81800;DHT22;71195;52.528;5.704;2024-01-27T04:00:45;4.50;66.70
81800;DHT22;71195;52.528;5.704;2024-01-27T04:03:14;4.50;66.70
81800;DHT22;71195;52.528;5.704;2024-01-27T04:05:43;4.50;66.60
81800;DHT22;71195;52.528;5.704;2024-01-27T04:08:13;4.50;66.60
81800;DHT22;71195;52.528;5.704;2024-01-27T04:10:44;4.40;66.70
81800;DHT22;71195;52.528;5.704;2024-01-27T04:13:14;4.40;66.70
81800;DHT22;71195;52.528;5.704;2024-01-27T04:15:43;4.40;66.70
81800;DHT22;71195;52.528;5.704;2024-01-27T04:18:12;4.40;66.70
81800;DHT22;71195;52.528;5.704;2024-01-27T04:20:41;4.30;66.70
81800;DHT22;71195;52.528;5.704;2024-01-27T04:23:12;4.30;66.70
81800;DHT22;71195;52.528;5.704;2024-01-27T04:25:44;4.30;66.60
81800;DHT22;71195;52.528;5.704;2024-01-27T04:28:13;4.30;66.70
81800;DHT22;71195;52.528;5.704;2024-01-27T04:30:42;4.30;66.70
81800;DHT22;71195;52.528;5.704;2024-01-27T04:33:12;4.20;66.80
81800;DHT22;71195;52.528;5.704;2024-01-27T04:35:41;4.20;66.80
81800;DHT22;71195;52.528;5.704;2024-01-27T04:38:10;4.20;66.80
81800;DHT22;71195;52.528;5.704;2024-01-27T04:40:39;4.10;66.80
81800;DHT22;71195;52.528;5.704;2024-01-27T04:43:14;4.10;66.80
81800;DHT22;71195;52.528;5.704;2024-01-27T04:45:44;4.10;66.90
81800;DHT22;71195;52.528;5.704;2024-01-27T04:48:13;4.10;66.90
81800;DHT22;71195;52.528;5.704;2024-01-27T04:50:42;4.10;66.80
81800;DHT22;71195;52.528;5.704;2024-01-27T04:53:12;4.10;66.90
81800;DHT22;71195;52.528;5.704;2024-01-27T04:55:41;4.10;66.90
81800;DHT22;71195;52.528;5.704;2024-01-27T04:58:13;4.00;66.80
81800;DHT22;71195;52.528;5.704;2024-01-27T05:00:42;4.00;66.80
81800;DHT22;71195;52.528;5.704;2024-01-27T05:03:12;4.00;66.90
81800;DHT22;71195;52.528;5.704;2024-01-27T05:05:42;4.00;67.00
81800;DHT22;71195;52.528;5.704;2024-01-27T05:08:11;3.90;67.10
81800;DHT22;71195;52.528;5.704;2024-01-27T05:10:40;3.90;67.00
81800;DHT22;71195;52.528;5.704;2024-01-27T05:13:09;3.90;67.10
81800;DHT22;71195;52.528;5.704;2024-01-27T05:15:41;3.90;67.00
81800;DHT22;71195;52.528;5.704;2024-01-27T05:18:10;3.90;67.00
81800;DHT22;71195;52.528;5.704;2024-01-27T05:20:39;3.90;67.00
81800;DHT22;71195;52.528;5.704;2024-01-27T05:23:08;3.90;66.90
81800;DHT22;71195;52.528;5.704;2024-01-27T05:25:38;3.90;66.90
81800;DHT22;71195;52.528;5.704;2024-01-27T05:28:07;3.90;66.80
81800;DHT22;71195;52.528;5.704;2024-01-27T05:30:36;3.90;66.90
81800;DHT22;71195;52.528;5.704;2024-01-27T05:33:08;3.90;67.00
81800;DHT22;71195;52.528;5.704;2024-01-27T05:35:37;3.80;67.00
81800;DHT22;71195;52.528;5.704;2024-01-27T05:38:06;3.80;67.00
81800;DHT22;71195;52.528;5.704;2024-01-27T05:40:35;3.90;67.00
81800;DHT22;71195;52.528;5.704;2024-01-27T05:43:04;3.80;66.90
81800;DHT22;71195;52.528;5.704;2024-01-27T05:45:33;3.80;67.00
81800;DHT22;71195;52.528;5.704;2024-01-27T05:48:03;3.80;67.00
81800;DHT22;71195;52.528;5.704;2024-01-27T05:50:35;3.70;67.10
81800;DHT22;71195;52.528;5.704;2024-01-27T05:53:04;3.70;67.00
81800;DHT22;71195;52.528;5.704;2024-01-27T05:55:33;3.80;67.00
81800;DHT22;71195;52.528;5.704;2024-01-27T05:58:03;3.80;67.00
81800;DHT22;71195;52.528;5.704;2024-01-27T06:00:32;3.80;66.90
81800;DHT22;71195;52.528;5.704;2024-01-27T06:03:01;3.80;67.00
81800;DHT22;71195;52.528;5.704;2024-01-27T06:05:30;3.80;67.00
81800;DHT22;71195;52.528;5.704;2024-01-27T06:08:02;3.80;67.00
81800;DHT22;71195;52.528;5.704;2024-01-27T06:10:31;3.80;67.10
81800;DHT22;71195;52.528;5.704;2024-01-27T06:13:02;3.80;67.10
81800;DHT22;71195;52.528;5.704;2024-01-27T06:15:32;3.90;67.00
81800;DHT22;71195;52.528;5.704;2024-01-27T06:18:01;3.90;67.00
81800;DHT22;71195;52.528;5.704;2024-01-27T06:20:30;3.90;67.00
81800;DHT22;71195;52.528;5.704;2024-01-27T06:23:02;3.90;67.00
81800;DHT22;71195;52.528;5.704;2024-01-27T06:25:31;3.90;66.90
81800;DHT22;71195;52.528;5.704;2024-01-27T06:28:00;3.90;67.00
81800;DHT22;71195;52.528;5.704;2024-01-27T06:30:29;3.90;66.90
81800;DHT22;71195;52.528;5.704;2024-01-27T06:32:59;3.90;66.90
81800;DHT22;71195;52.528;5.704;2024-01-27T06:35:28;3.90;67.00
81800;DHT22;71195;52.528;5.704;2024-01-27T06:37:57;3.90;67.00
81800;DHT22;71195;52.528;5.704;2024-01-27T06:40:29;3.90;67.00
81800;DHT22;71195;52.528;5.704;2024-01-27T06:42:58;3.90;67.10
81800;DHT22;71195;52.528;5.704;2024-01-27T06:45:27;3.90;67.00
81800;DHT22;71195;52.528;5.704;2024-01-27T06:47:56;3.90;67.20
81800;DHT22;71195;52.528;5.704;2024-01-27T06:50:25;3.90;67.20
81800;DHT22;71195;52.528;5.704;2024-01-27T06:52:55;3.80;67.20
81800;DHT22;71195;52.528;5.704;2024-01-27T06:55:24;3.70;67.40
81800;DHT22;71195;52.528;5.704;2024-01-27T06:57:56;3.70;67.40
81800;DHT22;71195;52.528;5.704;2024-01-27T07:00:25;3.70;67.50
81800;DHT22;71195;52.528;5.704;2024-01-27T07:02:54;3.70;67.30
81800;DHT22;71195;52.528;5.704;2024-01-27T07:05:23;3.70;67.50
81800;DHT22;71195;52.528;5.704;2024-01-27T07:07:52;3.70;67.40
81800;DHT22;71195;52.528;5.704;2024-01-27T07:10:21;3.70;67.40
81800;DHT22;71195;52.528;5.704;2024-01-27T07:12:50;3.60;67.40
81800;DHT22;71195;52.528;5.704;2024-01-27T07:15:22;3.60;67.40
81800;DHT22;71195;52.528;5.704;2024-01-27T07:17:51;3.60;67.30
81800;DHT22;71195;52.528;5.704;2024-01-27T07:20:21;3.60;67.20
81800;DHT22;71195;52.528;5.704;2024-01-27T07:22:50;3.60;67.30
81800;DHT22;71195;52.528;5.704;2024-01-27T07:25:19;3.50;67.40
81800;DHT22;71195;52.528;5.704;2024-01-27T07:27:48;3.50;67.40
81800;DHT22;71195;52.528;5.704;2024-01-27T07:30:17;3.50;67.50
81800;DHT22;71195;52.528;5.704;2024-01-27T07:32:49;3.50;67.50
81800;DHT22;71195;52.528;5.704;2024-01-27T07:35:18;3.50;67.50
81800;DHT22;71195;52.528;5.704;2024-01-27T07:37:48;3.50;67.50
81800;DHT22;71195;52.528;5.704;2024-01-27T07:40:17;3.50;67.50
81800;DHT22;71195;52.528;5.704;2024-01-27T07:42:46;3.50;67.50
81800;DHT22;71195;52.528;5.704;2024-01-27T07:45:15;3.40;67.50
81800;DHT22;71195;52.528;5.704;2024-01-27T07:47:44;3.30;67.60
81800;DHT22;71195;52.528;5.704;2024-01-27T07:50:16;3.30;67.60
81800;DHT22;71195;52.528;5.704;2024-01-27T07:52:45;3.30;67.50
81800;DHT22;71195;52.528;5.704;2024-01-27T07:55:15;3.30;67.60
81800;DHT22;71195;52.528;5.704;2024-01-27T07:57:44;3.30;67.60
81800;DHT22;71195;52.528;5.704;2024-01-27T08:00:13;3.30;67.60
81800;DHT22;71195;52.528;5.704;2024-01-27T08:02:43;3.30;67.50
81800;DHT22;71195;52.528;5.704;2024-01-27T08:05:12;3.30;67.40
81800;DHT22;71195;52.528;5.704;2024-01-27T08:07:43;3.30;67.50
81800;DHT22;71195;52.528;5.704;2024-01-27T08:10:13;3.30;67.60
81800;DHT22;71195;52.528;5.704;2024-01-27T08:12:42;3.20;67.50
81800;DHT22;71195;52.528;5.704;2024-01-27T08:15:12;3.20;67.50
81800;DHT22;71195;52.528;5.704;2024-01-27T08:17:41;3.20;67.50
81800;DHT22;71195;52.528;5.704;2024-01-27T08:20:11;3.20;67.50
81800;DHT22;71195;52.528;5.704;2024-01-27T08:22:43;3.30;67.50
81800;DHT22;71195;52.528;5.704;2024-01-27T08:25:12;3.30;67.50
81800;DHT22;71195;52.528;5.704;2024-01-27T08:27:41;3.30;67.30
81800;DHT22;71195;52.528;5.704;2024-01-27T08:30:12;3.40;67.20
81800;DHT22;71195;52.528;5.704;2024-01-27T08:32:41;3.50;67.10
81800;DHT22;71195;52.528;5.704;2024-01-27T08:35:10;3.50;67.10
81800;DHT22;71195;52.528;5.704;2024-01-27T08:37:39;3.60;67.00
81800;DHT22;71195;52.528;5.704;2024-01-27T08:40:11;3.60;66.90
81800;DHT22;71195;52.528;5.704;2024-01-27T08:42:41;3.70;67.00
81800;DHT22;71195;52.528;5.704;2024-01-27T08:45:10;3.90;66.90
81800;DHT22;71195;52.528;5.704;2024-01-27T08:47:39;3.90;66.80
81800;DHT22;71195;52.528;5.704;2024-01-27T08:50:09;3.90;66.80
81800;DHT22;71195;52.528;5.704;2024-01-27T08:52:38;4.00;66.80
81800;DHT22;71195;52.528;5.704;2024-01-27T08:55:08;4.10;66.70
81800;DHT22;71195;52.528;5.704;2024-01-27T08:57:39;4.10;66.70
81800;DHT22;71195;52.528;5.704;2024-01-27T09:00:10;4.20;66.80
81800;DHT22;71195;52.528;5.704;2024-01-27T09:02:41;4.20;66.80
81800;DHT22;71195;52.528;5.704;2024-01-27T09:05:10;4.20;66.80
81800;DHT22;71195;52.528;5.704;2024-01-27T09:07:39;4.30;66.80
81800;DHT22;71195;52.528;5.704;2024-01-27T09:10:09;4.30;66.80
81800;DHT22;71195;52.528;5.704;2024-01-27T09:12:41;4.40;66.90
81800;DHT22;71195;52.528;5.704;2024-01-27T09:15:10;4.50;66.80
81800;DHT22;71195;52.528;5.704;2024-01-27T09:17:40;4.50;66.70
81800;DHT22;71195;52.528;5.704;2024-01-27T09:20:10;4.50;66.70
81800;DHT22;71195;52.528;5.704;2024-01-27T09:22:39;4.70;66.70
81800;DHT22;71195;52.528;5.704;2024-01-27T09:25:08;4.70;66.70
81800;DHT22;71195;52.528;5.704;2024-01-27T09:27:38;4.70;66.80
81800;DHT22;71195;52.528;5.704;2024-01-27T09:30:11;4.70;66.90
81800;DHT22;71195;52.528;5.704;2024-01-27T09:32:40;4.90;66.90
81800;DHT22;71195;52.528;5.704;2024-01-27T09:35:09;4.90;66.70
81800;DHT22;71195;52.528;5.704;2024-01-27T09:37:38;4.90;66.80
81800;DHT22;71195;52.528;5.704;2024-01-27T09:40:10;5.00;66.90
81800;DHT22;71195;52.528;5.704;2024-01-27T09:42:39;5.00;66.80
81800;DHT22;71195;52.528;5.704;2024-01-27T09:45:16;5.10;66.80
81800;DHT22;71195;52.528;5.704;2024-01-27T09:47:45;5.20;66.90
81800;DHT22;71195;52.528;5.704;2024-01-27T09:50:17;5.30;66.80
81800;DHT22;71195;52.528;5.704;2024-01-27T09:52:47;5.30;66.80
81800;DHT22;71195;52.528;5.704;2024-01-27T09:55:16;5.50;66.80
81800;DHT22;71195;52.528;5.704;2024-01-27T09:57:45;5.50;66.80
81800;DHT22;71195;52.528;5.704;2024-01-27T10:00:19;5.50;66.80
81800;DHT22;71195;52.528;5.704;2024-01-27T10:02:48;5.60;66.90
81800;DHT22;71195;52.528;5.704;2024-01-27T10:05:18;5.70;66.90
81800;DHT22;71195;52.528;5.704;2024-01-27T10:07:48;5.70;66.90
81800;DHT22;71195;52.528;5.704;2024-01-27T10:10:17;5.80;67.00
81800;DHT22;71195;52.528;5.704;2024-01-27T10:12:48;5.90;66.90
81800;DHT22;71195;52.528;5.704;2024-01-27T10:15:22;6.00;67.00
81800;DHT22;71195;52.528;5.704;2024-01-27T10:17:53;6.00;67.00
81800;DHT22;71195;52.528;5.704;2024-01-27T10:20:32;6.10;66.90
81800;DHT22;71195;52.528;5.704;2024-01-27T10:23:10;6.20;67.00
81800;DHT22;71195;52.528;5.704;2024-01-27T10:25:40;6.20;67.00
81800;DHT22;71195;52.528;5.704;2024-01-27T10:28:10;6.30;67.10
81800;DHT22;71195;52.528;5.704;2024-01-27T10:30:41;6.30;67.10
81800;DHT22;71195;52.528;5.704;2024-01-27T10:33:11;6.40;67.10
81800;DHT22;71195;52.528;5.704;2024-01-27T10:35:42;6.50;67.10
81800;DHT22;71195;52.528;5.704;2024-01-27T10:38:11;6.50;67.10
81800;DHT22;71195;52.528;5.704;2024-01-27T10:40:40;6.60;67.10
81800;DHT22;71195;52.528;5.704;2024-01-27T10:43:09;6.60;67.10
81800;DHT22;71195;52.528;5.704;2024-01-27T10:45:42;6.70;67.10
81800;DHT22;71195;52.528;5.704;2024-01-27T10:48:11;6.80;67.20
81800;DHT22;71195;52.528;5.704;2024-01-27T10:50:41;6.80;67.20
81800;DHT22;71195;52.528;5.704;2024-01-27T10:53:24;6.90;67.10
81800;DHT22;71195;52.528;5.704;2024-01-27T10:55:57;6.90;67.10
81800;DHT22;71195;52.528;5.704;2024-01-27T10:58:27;7.00;67.10
81800;DHT22;71195;52.528;5.704;2024-01-27T11:01:01;7.00;67.10
81800;DHT22;71195;52.528;5.704;2024-01-27T11:03:31;7.10;67.10
81800;DHT22;71195;52.528;5.704;2024-01-27T11:06:01;7.20;67.10
81800;DHT22;71195;52.528;5.704;2024-01-27T11:08:31;7.20;67.10
81800;DHT22;71195;52.528;5.704;2024-01-27T11:11:01;7.30;67.10
81800;DHT22;71195;52.528;5.704;2024-01-27T11:13:32;7.40;67.00
81800;DHT22;71195;52.528;5.704;2024-01-27T11:16:05;7.50;67.00
81800;DHT22;71195;52.528;5.704;2024-01-27T11:18:34;7.50;66.90
81800;DHT22;71195;52.528;5.704;2024-01-27T11:21:03;7.60;66.90
81800;DHT22;71195;52.528;5.704;2024-01-27T11:23:33;7.80;66.90
81800;DHT22;71195;52.528;5.704;2024-01-27T11:26:04;7.80;66.80
81800;DHT22;71195;52.528;5.704;2024-01-27T11:28:33;8.00;66.80
81800;DHT22;71195;52.528;5.704;2024-01-27T11:31:06;8.00;66.70
81800;DHT22;71195;52.528;5.704;2024-01-27T11:33:41;8.10;66.70
81800;DHT22;71195;52.528;5.704;2024-01-27T11:36:19;8.20;66.60
81800;DHT22;71195;52.528;5.704;2024-01-27T11:38:50;8.40;66.60
81800;DHT22;71195;52.528;5.704;2024-01-27T11:41:26;8.40;66.50
81800;DHT22;71195;52.528;5.704;2024-01-27T11:43:57;8.60;66.40
81800;DHT22;71195;52.528;5.704;2024-01-27T11:46:30;8.60;66.30
81800;DHT22;71195;52.528;5.704;2024-01-27T11:48:59;8.80;66.20
81800;DHT22;71195;52.528;5.704;2024-01-27T11:51:28;8.90;66.10
81800;DHT22;71195;52.528;5.704;2024-01-27T11:53:58;9.00;66.00
81800;DHT22;71195;52.528;5.704;2024-01-27T11:56:27;9.20;65.90
81800;DHT22;71195;52.528;5.704;2024-01-27T11:58:57;9.40;65.70
81800;DHT22;71195;52.528;5.704;2024-01-27T12:01:29;9.50;65.50
81800;DHT22;71195;52.528;5.704;2024-01-27T12:03:58;9.70;65.40
81800;DHT22;71195;52.528;5.704;2024-01-27T12:06:27;9.90;65.20
81800;DHT22;71195;52.528;5.704;2024-01-27T12:08:57;10.00;65.00
81800;DHT22;71195;52.528;5.704;2024-01-27T12:11:26;10.20;64.90
81800;DHT22;71195;52.528;5.704;2024-01-27T12:13:56;10.40;64.70
81800;DHT22;71195;52.528;5.704;2024-01-27T12:16:26;10.60;64.60
81800;DHT22;71195;52.528;5.704;2024-01-27T12:19:00;10.80;64.50
81800;DHT22;71195;52.528;5.704;2024-01-27T12:21:29;11.00;64.30
81800;DHT22;71195;52.528;5.704;2024-01-27T12:23:59;11.10;64.30
81800;DHT22;71195;52.528;5.704;2024-01-27T12:26:29;11.30;64.20
81800;DHT22;71195;52.528;5.704;2024-01-27T12:28:59;11.40;64.10
81800;DHT22;71195;52.528;5.704;2024-01-27T12:31:29;11.50;64.00
81800;DHT22;71195;52.528;5.704;2024-01-27T12:34:01;11.50;63.90
81800;DHT22;71195;52.528;5.704;2024-01-27T12:36:30;11.70;63.70
81800;DHT22;71195;52.528;5.704;2024-01-27T12:39:00;11.80;63.70
81800;DHT22;71195;52.528;5.704;2024-01-27T12:41:31;11.90;63.60
81800;DHT22;71195;52.528;5.704;2024-01-27T12:44:01;12.00;63.50
81800;DHT22;71195;52.528;5.704;2024-01-27T12:46:30;12.10;63.30
81800;DHT22;71195;52.528;5.704;2024-01-27T12:49:03;12.20;63.20
81800;DHT22;71195;52.528;5.704;2024-01-27T12:51:32;12.30;63.10
81800;DHT22;71195;52.528;5.704;2024-01-27T12:54:01;12.40;63.00
81800;DHT22;71195;52.528;5.704;2024-01-27T12:56:30;12.50;63.00
81800;DHT22;71195;52.528;5.704;2024-01-27T12:59:01;12.70;62.80
81800;DHT22;71195;52.528;5.704;2024-01-27T13:01:32;12.80;62.60
81800;DHT22;71195;52.528;5.704;2024-01-27T13:04:05;13.00;62.40
81800;DHT22;71195;52.528;5.704;2024-01-27T13:06:34;13.10;62.20
81800;DHT22;71195;52.528;5.704;2024-01-27T13:09:04;13.10;62.10
81800;DHT22;71195;52.528;5.704;2024-01-27T13:11:33;13.30;61.90
81800;DHT22;71195;52.528;5.704;2024-01-27T13:14:02;13.30;61.80
81800;DHT22;71195;52.528;5.704;2024-01-27T13:16:31;13.30;61.60
81800;DHT22;71195;52.528;5.704;2024-01-27T13:19:01;13.50;61.60
81800;DHT22;71195;52.528;5.704;2024-01-27T13:21:32;13.50;61.40
81800;DHT22;71195;52.528;5.704;2024-01-27T13:24:02;13.50;61.30
81800;DHT22;71195;52.528;5.704;2024-01-27T13:26:32;13.50;61.30
81800;DHT22;71195;52.528;5.704;2024-01-27T13:29:04;13.50;61.20
81800;DHT22;71195;52.528;5.704;2024-01-27T13:31:36;13.60;61.10
81800;DHT22;71195;52.528;5.704;2024-01-27T13:34:05;13.60;60.80
81800;DHT22;71195;52.528;5.704;2024-01-27T13:36:37;13.60;60.80
81800;DHT22;71195;52.528;5.704;2024-01-27T13:39:06;13.60;60.60
81800;DHT22;71195;52.528;5.704;2024-01-27T13:41:39;13.60;60.60
81800;DHT22;71195;52.528;5.704;2024-01-27T13:44:08;13.50;60.60
81800;DHT22;71195;52.528;5.704;2024-01-27T13:46:38;13.40;60.70
81800;DHT22;71195;52.528;5.704;2024-01-27T13:49:07;13.30;60.70
81800;DHT22;71195;52.528;5.704;2024-01-27T13:51:38;13.40;60.70
81800;DHT22;71195;52.528;5.704;2024-01-27T13:54:10;13.30;60.50
81800;DHT22;71195;52.528;5.704;2024-01-27T13:56:40;13.30;60.50
81800;DHT22;71195;52.528;5.704;2024-01-27T13:59:09;13.30;60.60
81800;DHT22;71195;52.528;5.704;2024-01-27T14:01:38;13.10;60.60
81800;DHT22;71195;52.528;5.704;2024-01-27T14:04:07;13.10;60.70
81800;DHT22;71195;52.528;5.704;2024-01-27T14:06:39;13.00;60.70
81800;DHT22;71195;52.528;5.704;2024-01-27T14:09:08;12.90;60.60
81800;DHT22;71195;52.528;5.704;2024-01-27T14:11:39;12.80;60.60
81800;DHT22;71195;52.528;5.704;2024-01-27T14:14:08;12.70;60.60
81800;DHT22;71195;52.528;5.704;2024-01-27T14:16:37;12.60;60.60
81800;DHT22;71195;52.528;5.704;2024-01-27T14:19:07;12.50;60.70
81800;DHT22;71195;52.528;5.704;2024-01-27T14:21:39;12.50;60.70
81800;DHT22;71195;52.528;5.704;2024-01-27T14:24:08;12.40;60.60
81800;DHT22;71195;52.528;5.704;2024-01-27T14:26:37;12.30;60.60
81800;DHT22;71195;52.528;5.704;2024-01-27T14:29:06;12.30;60.60
81800;DHT22;71195;52.528;5.704;2024-01-27T14:31:36;12.20;60.50
81800;DHT22;71195;52.528;5.704;2024-01-27T14:34:05;12.10;60.60
81800;DHT22;71195;52.528;5.704;2024-01-27T14:36:35;12.00;60.70
81800;DHT22;71195;52.528;5.704;2024-01-27T14:39:07;11.90;60.70
81800;DHT22;71195;52.528;5.704;2024-01-27T14:41:37;11.90;60.80
81800;DHT22;71195;52.528;5.704;2024-01-27T14:44:06;11.80;60.80
81800;DHT22;71195;52.528;5.704;2024-01-27T14:46:37;11.80;60.80
81800;DHT22;71195;52.528;5.704;2024-01-27T14:49:06;11.70;60.80
81800;DHT22;71195;52.528;5.704;2024-01-27T14:51:35;11.70;60.70
81800;DHT22;71195;52.528;5.704;2024-01-27T14:54:07;11.50;60.80
81800;DHT22;71195;52.528;5.704;2024-01-27T14:56:36;11.50;60.70
81800;DHT22;71195;52.528;5.704;2024-01-27T14:59:05;11.40;60.90
81800;DHT22;71195;52.528;5.704;2024-01-27T15:01:36;11.30;60.90
81800;DHT22;71195;52.528;5.704;2024-01-27T15:04:05;11.10;60.90
81800;DHT22;71195;52.528;5.704;2024-01-27T15:06:34;11.10;61.00
81800;DHT22;71195;52.528;5.704;2024-01-27T15:09:07;11.00;60.90
81800;DHT22;71195;52.528;5.704;2024-01-27T15:11:36;10.90;61.10
81800;DHT22;71195;52.528;5.704;2024-01-27T15:14:05;10.80;61.10
81800;DHT22;71195;52.528;5.704;2024-01-27T15:16:34;10.70;61.10
81800;DHT22;71195;52.528;5.704;2024-01-27T15:19:03;10.50;61.20
81800;DHT22;71195;52.528;5.704;2024-01-27T15:21:33;10.50;61.20
81800;DHT22;71195;52.528;5.704;2024-01-27T15:24:02;10.40;61.10
81800;DHT22;71195;52.528;5.704;2024-01-27T15:26:34;10.30;61.20
81800;DHT22;71195;52.528;5.704;2024-01-27T15:29:03;10.20;61.20
81800;DHT22;71195;52.528;5.704;2024-01-27T15:31:33;10.10;61.20
81800;DHT22;71195;52.528;5.704;2024-01-27T15:34:02;10.10;61.20
81800;DHT22;71195;52.528;5.704;2024-01-27T15:36:32;10.00;61.10
81800;DHT22;71195;52.528;5.704;2024-01-27T15:39:01;10.00;61.20
81800;DHT22;71195;52.528;5.704;2024-01-27T15:41:31;9.90;61.20
81800;DHT22;71195;52.528;5.704;2024-01-27T15:44:02;9.80;61.30
81800;DHT22;71195;52.528;5.704;2024-01-27T15:46:32;9.70;61.20
81800;DHT22;71195;52.528;5.704;2024-01-27T15:49:01;9.70;61.30
81800;DHT22;71195;52.528;5.704;2024-01-27T15:51:30;9.60;61.30
81800;DHT22;71195;52.528;5.704;2024-01-27T15:53:59;9.50;61.40
81800;DHT22;71195;52.528;5.704;2024-01-27T15:56:28;9.40;61.50
81800;DHT22;71195;52.528;5.704;2024-01-27T15:58:57;9.40;61.50